• Join FlightAware (Why Join?)
  • Login
  • US Flag 
07:06AM EDT


 

Airport Tracker/Info


-or-


 

Live Flight TrackerFlight Track Log ✈ SWA540 ✈ 29-Aug-2013 ✈ KBWI - KBDL

Flight Track Log - Related Links

Times and Time Zones

All times are in EDT time to prevent confusion due to time zone crossing. See the SWA540 flight status page for this flight to view local times or setup timezone preferences in your user account.

Time Position Orientation Groundspeed Altitude Reporting Facility
EDT Latitude Longitude Course Direction KTS MPH feet Rate Location/Type
12:15PM 39.8167 -75.7333 270° West 289 333 6,000  Level Potomac TRACON
12:16PM 39.7500 -75.7000 159° South 263 303 6,000 -240 Level Potomac TRACON
12:17PM 39.6833 -75.6833 169° South 254 292 5,600 -720 Descending Potomac TRACON
12:18PM 39.6167 -75.6500 159° South 241 277 4,600 -840 Descending Potomac TRACON
12:19PM 39.5500 -75.6333 169° South 237 273 4,000 -360 Descending Potomac TRACON
12:20PM 39.5000 -75.6167 166° South 230 265 4,000  Level Potomac TRACON
12:21PM 39.1667 -76.5932 270° West  Level FlightAware Approximate
12:21PM 39.4333 -75.5833 159° South 221 254 4,000  Level Potomac TRACON
12:22PM 39.4000 -75.5333 131° Southeast 222 255 4,000 -600 Level Potomac TRACON
12:23PM 39.3500 -75.4833 142° Southeast 209 241 2,900 -1,020 Descending Potomac TRACON
12:24PM 39.3167 -75.4333 131° Southeast 196 226 2,000 -540 Descending Potomac TRACON
12:25PM 39.2667 -75.4333 180° South 195 224 1,900 -300 Descending Potomac TRACON
12:26PM 39.2167 -75.4500 194° South 170 196 1,500 360 Descending Potomac TRACON
12:28PM 39.3324 -75.3381 37° Northeast  Level Estimated
12:29PM 39.0947 -76.5972 37° Northeast 209 241 3,400  Level Washington Center
12:30PM 39.0389 -76.5350 139° Southeast 238 274 6,000 2,640 Climbing Washington Center
12:31PM 39.0542 -76.4442 78° East 218 251 8,700 2,280 Climbing Washington Center
12:32PM 39.0797 -76.3483 71° East 239 275 10,600 1,740 Climbing Washington Center
12:33PM 39.1075 -76.2364 72° East 273 314 12,300 1,860 Climbing Washington Center
12:34PM 39.1372 -76.1267 71° East 329 379 14,300 2,040 Climbing Washington Center
12:35PM 39.1628 -76.0039 75° East 334 384 16,400 1,860 Climbing Washington Center
12:36PM 39.1964 -75.8781 71° East 348 400 18,100 1,620 Climbing Washington Center
12:37PM 39.2675 -75.7819 46° Northeast 354 407 19,700 1,440 Climbing Washington Center
12:39PM 39.4211 -75.5869 44° Northeast 386 444 22,500 1,380 Climbing New York Center
12:40PM 39.5003 -75.4847 45° Northeast 405 466 23,800 1,200 Climbing New York Center
12:41PM 39.5814 -75.3797 45° Northeast 410 472 25,000 600 Climbing New York Center
12:42PM 39.6650 -75.2664 46° Northeast 423 487 25,000  Level New York Center
12:43PM 39.7514 -75.1369 49° Northeast 442 509 25,000  Level New York Center
12:44PM 39.8328 -75.0203 48° Northeast 442 509 25,000  Level New York Center
12:45PM 39.9081 -74.8978 51° Northeast 442 509 25,000  Level New York Center
12:46PM 39.9789 -74.7772 52° Northeast 428 493 25,000  Level New York Center
12:47PM 40.0475 -74.6567 53° Northeast 421 484 25,000  Level New York Center
12:48PM 40.1161 -74.5356 53° Northeast 421 484 25,000  Level New York Center
12:49PM 40.1825 -74.4114 55° Northeast 415 478 25,000  Level New York Center
12:50PM 40.2508 -74.2872 54° Northeast 415 478 25,000  Level New York Center
12:52PM 40.3564 -74.0958 54° Northeast 398 458 25,000  Level Boston Center
12:53PM 40.4353 -73.9614 52° Northeast 398 458 25,000  Level Boston Center
12:54PM 40.5014 -73.8403 54° Northeast 404 465 25,000 -60 Level Boston Center
12:55PM 40.5697 -73.7186 53° Northeast 409 471 24,900 -540 Descending Boston Center
12:56PM 40.6231 -73.6047 58° Northeast 404 465 24,000 -1,200 Descending Boston Center
12:57PM 40.6886 -73.4911 53° Northeast 399 459 22,500 -1,860 Descending Boston Center
12:58PM 40.7481 -73.3769 55° Northeast 393 452 20,300 -1,800 Descending Boston Center
12:59PM 40.8175 -73.2739 48° Northeast 375 432 19,000 -900 Descending Boston Center
01:00PM 40.8953 -73.1842 41° Northeast 365 420 18,600 -720 Descending Boston Center
01:01PM 40.9731 -73.0972 40° Northeast 365 420 17,600 -1,020 Descending Boston Center
01:02PM 41.0506 -73.0069 41° Northeast 365 420 16,600 -1,020 Descending Boston Center
01:03PM 41.1219 -72.9194 43° Northeast 359 413 15,600 -1,260 Descending Boston Center
01:03PM 41.1806 -72.8511 41° Northeast 349 402 14,500 -1,800 Descending Boston Center
01:04PM 41.2453 -72.7742 42° Northeast 343 395 12,700 -1,800 Descending Boston Center
01:05PM 41.3308 -72.7167 27° Northeast 318 366 11,000 -1,200 Descending Boston Center
01:06PM 41.3953 -72.7639 331° Northwest 285 328 10,300 -900 Descending Boston Center
01:07PM 41.4681 -72.8253 328° Northwest 275 316 9,200 -1,560 Descending Boston Center
01:08PM 41.5367 -72.8783 330° Northwest 285 328 7,100 -2,100 Descending Boston Center
01:09PM 41.5911 -72.8203 39° Northeast 260 299 5,000 -2,040 Descending Boston Center
01:10PM 41.6433 -72.7511 45° Northeast 259 298 3,000 -1,020 Descending Boston Center
01:11PM 41.6833 -72.6875 50° Northeast 206 237 3,000  Level Boston Center
01:12PM 41.7228 -72.6292 48° Northeast 214 246 3,000 -300 Level Boston Center
01:13PM 41.7647 -72.5736 45° Northeast 211 243 2,500 -300 Descending Boston Center
01:14PM 41.8208 -72.5600 10° North 211 243 2,500 -360 Level Boston Center
01:15PM 41.8667 -72.5989 328° Northwest 181 208 1,800 -720 Descending Boston Center
01:17PM 41.8981 -72.6408 315° West 142 163 1,000 -720 Descending Boston Center
01:19PM 41.9333 -72.6833 335° Northwest  Level FlightAware Approximate
01:26PM 41.9392 -72.6834 335° Northwest  Level Estimated